sensor_id;sensor_type;location;lat;lon;timestamp;P1;durP1;ratioP1;P2;durP2;ratioP2
77226;SDS011;66234;47.642;19.144;2023-02-05T00:02:59;2.30;;;1.10;;
77226;SDS011;66234;47.642;19.144;2023-02-05T00:06:01;3.45;;;0.55;;
77226;SDS011;66234;47.642;19.144;2023-02-05T00:09:04;3.40;;;1.63;;
77226;SDS011;66234;47.642;19.144;2023-02-05T00:12:07;3.72;;;1.30;;
77226;SDS011;66234;47.642;19.144;2023-02-05T00:15:09;2.20;;;1.30;;
77226;SDS011;66234;47.642;19.144;2023-02-05T00:18:12;3.88;;;1.20;;
77226;SDS011;66234;47.642;19.144;2023-02-05T00:21:15;5.80;;;1.52;;
77226;SDS011;66234;47.642;19.144;2023-02-05T00:24:18;3.15;;;1.40;;
77226;SDS011;66234;47.642;19.144;2023-02-05T00:27:21;2.88;;;1.00;;
77226;SDS011;66234;47.642;19.144;2023-02-05T00:30:24;3.10;;;1.07;;
77226;SDS011;66234;47.642;19.144;2023-02-05T00:33:26;3.50;;;1.42;;
77226;SDS011;66234;47.642;19.144;2023-02-05T00:36:29;4.25;;;1.10;;
77226;SDS011;66234;47.642;19.144;2023-02-05T00:39:31;3.90;;;1.10;;
77226;SDS011;66234;47.642;19.144;2023-02-05T00:42:34;4.03;;;1.15;;
77226;SDS011;66234;47.642;19.144;2023-02-05T00:45:36;3.80;;;1.40;;
77226;SDS011;66234;47.642;19.144;2023-02-05T00:48:39;2.53;;;1.30;;
77226;SDS011;66234;47.642;19.144;2023-02-05T00:51:42;2.25;;;1.08;;
77226;SDS011;66234;47.642;19.144;2023-02-05T00:54:45;2.42;;;1.00;;
77226;SDS011;66234;47.642;19.144;2023-02-05T00:57:48;3.00;;;0.75;;
77226;SDS011;66234;47.642;19.144;2023-02-05T01:00:50;2.87;;;0.73;;
77226;SDS011;66234;47.642;19.144;2023-02-05T01:03:53;3.47;;;0.80;;
77226;SDS011;66234;47.642;19.144;2023-02-05T01:06:56;0.43;;;0.38;;
77226;SDS011;66234;47.642;19.144;2023-02-05T01:09:58;1.77;;;0.60;;
77226;SDS011;66234;47.642;19.144;2023-02-05T01:13:02;0.85;;;0.40;;
77226;SDS011;66234;47.642;19.144;2023-02-05T01:16:05;1.00;;;0.68;;
77226;SDS011;66234;47.642;19.144;2023-02-05T01:19:09;2.60;;;0.55;;
77226;SDS011;66234;47.642;19.144;2023-02-05T01:22:11;1.33;;;0.47;;
77226;SDS011;66234;47.642;19.144;2023-02-05T01:25:14;3.90;;;0.88;;
77226;SDS011;66234;47.642;19.144;2023-02-05T01:28:16;5.43;;;1.25;;
77226;SDS011;66234;47.642;19.144;2023-02-05T01:31:20;1.73;;;0.80;;
77226;SDS011;66234;47.642;19.144;2023-02-05T01:34:23;1.10;;;0.50;;
77226;SDS011;66234;47.642;19.144;2023-02-05T01:37:26;2.20;;;1.90;;
77226;SDS011;66234;47.642;19.144;2023-02-05T01:40:28;2.60;;;1.30;;
77226;SDS011;66234;47.642;19.144;2023-02-05T01:43:31;2.70;;;0.65;;
77226;SDS011;66234;47.642;19.144;2023-02-05T01:46:34;1.00;;;0.50;;
77226;SDS011;66234;47.642;19.144;2023-02-05T01:49:39;1.42;;;0.85;;
77226;SDS011;66234;47.642;19.144;2023-02-05T01:52:44;3.80;;;1.57;;
77226;SDS011;66234;47.642;19.144;2023-02-05T01:55:55;2.97;;;1.20;;
77226;SDS011;66234;47.642;19.144;2023-02-05T01:59:08;2.78;;;0.70;;
77226;SDS011;66234;47.642;19.144;2023-02-05T02:02:12;1.83;;;1.10;;
77226;SDS011;66234;47.642;19.144;2023-02-05T02:05:18;0.50;;;0.43;;
77226;SDS011;66234;47.642;19.144;2023-02-05T02:08:21;0.65;;;0.13;;
77226;SDS011;66234;47.642;19.144;2023-02-05T02:11:24;2.85;;;1.02;;
77226;SDS011;66234;47.642;19.144;2023-02-05T02:14:31;2.92;;;0.90;;
77226;SDS011;66234;47.642;19.144;2023-02-05T02:17:38;2.45;;;0.70;;
77226;SDS011;66234;47.642;19.144;2023-02-05T02:20:43;3.90;;;0.93;;
77226;SDS011;66234;47.642;19.144;2023-02-05T02:30:38;1.83;;;1.02;;
77226;SDS011;66234;47.642;19.144;2023-02-05T02:34:23;2.93;;;1.17;;
77226;SDS011;66234;47.642;19.144;2023-02-05T02:37:39;4.53;;;1.00;;
77226;SDS011;66234;47.642;19.144;2023-02-05T02:40:53;3.28;;;1.10;;
77226;SDS011;66234;47.642;19.144;2023-02-05T02:47:36;1.42;;;0.88;;
77226;SDS011;66234;47.642;19.144;2023-02-05T02:50:42;1.58;;;0.57;;
77226;SDS011;66234;47.642;19.144;2023-02-05T02:53:51;3.55;;;0.73;;
77226;SDS011;66234;47.642;19.144;2023-02-05T02:56:58;3.50;;;0.87;;
77226;SDS011;66234;47.642;19.144;2023-02-05T03:00:05;2.28;;;0.82;;
77226;SDS011;66234;47.642;19.144;2023-02-05T03:03:14;2.95;;;0.98;;
77226;SDS011;66234;47.642;19.144;2023-02-05T03:06:21;1.07;;;0.53;;
77226;SDS011;66234;47.642;19.144;2023-02-05T03:12:47;2.80;;;0.75;;
77226;SDS011;66234;47.642;19.144;2023-02-05T03:15:51;1.77;;;1.10;;
77226;SDS011;66234;47.642;19.144;2023-02-05T03:18:57;2.38;;;0.93;;
77226;SDS011;66234;47.642;19.144;2023-02-05T03:22:03;3.63;;;1.02;;
77226;SDS011;66234;47.642;19.144;2023-02-05T03:25:07;3.90;;;0.93;;
77226;SDS011;66234;47.642;19.144;2023-02-05T03:28:11;3.33;;;0.93;;
77226;SDS011;66234;47.642;19.144;2023-02-05T03:31:21;2.50;;;0.82;;
77226;SDS011;66234;47.642;19.144;2023-02-05T03:34:39;3.97;;;1.20;;
77226;SDS011;66234;47.642;19.144;2023-02-05T03:54:35;3.13;;;1.02;;
77226;SDS011;66234;47.642;19.144;2023-02-05T04:00:56;1.08;;;0.70;;
77226;SDS011;66234;47.642;19.144;2023-02-05T04:03:59;1.20;;;0.90;;
77226;SDS011;66234;47.642;19.144;2023-02-05T04:07:03;2.50;;;1.00;;
77226;SDS011;66234;47.642;19.144;2023-02-05T04:10:07;3.72;;;1.40;;
77226;SDS011;66234;47.642;19.144;2023-02-05T04:13:14;2.63;;;0.95;;
77226;SDS011;66234;47.642;19.144;2023-02-05T04:16:17;3.55;;;1.10;;
77226;SDS011;66234;47.642;19.144;2023-02-05T04:19:20;4.35;;;1.10;;
77226;SDS011;66234;47.642;19.144;2023-02-05T04:22:23;2.67;;;0.60;;
77226;SDS011;66234;47.642;19.144;2023-02-05T04:25:26;2.50;;;1.20;;
77226;SDS011;66234;47.642;19.144;2023-02-05T04:28:34;2.42;;;0.75;;
77226;SDS011;66234;47.642;19.144;2023-02-05T04:31:39;3.40;;;1.20;;
77226;SDS011;66234;47.642;19.144;2023-02-05T04:34:42;2.33;;;0.70;;
77226;SDS011;66234;47.642;19.144;2023-02-05T04:37:47;3.30;;;1.13;;
77226;SDS011;66234;47.642;19.144;2023-02-05T04:40:50;2.65;;;1.00;;
77226;SDS011;66234;47.642;19.144;2023-02-05T04:43:53;4.63;;;1.35;;
77226;SDS011;66234;47.642;19.144;2023-02-05T04:46:55;2.45;;;0.98;;
77226;SDS011;66234;47.642;19.144;2023-02-05T04:49:58;2.67;;;1.67;;
77226;SDS011;66234;47.642;19.144;2023-02-05T04:53:00;6.15;;;1.48;;
77226;SDS011;66234;47.642;19.144;2023-02-05T04:56:10;3.42;;;1.00;;
77226;SDS011;66234;47.642;19.144;2023-02-05T04:59:15;1.93;;;1.13;;
77226;SDS011;66234;47.642;19.144;2023-02-05T05:02:18;2.70;;;1.00;;
77226;SDS011;66234;47.642;19.144;2023-02-05T05:05:20;2.17;;;0.80;;
77226;SDS011;66234;47.642;19.144;2023-02-05T05:08:23;5.13;;;1.33;;
77226;SDS011;66234;47.642;19.144;2023-02-05T05:11:25;5.37;;;1.17;;
77226;SDS011;66234;47.642;19.144;2023-02-05T05:14:28;4.80;;;1.58;;
77226;SDS011;66234;47.642;19.144;2023-02-05T05:17:31;2.63;;;1.08;;
77226;SDS011;66234;47.642;19.144;2023-02-05T05:20:35;2.83;;;1.70;;
77226;SDS011;66234;47.642;19.144;2023-02-05T05:23:37;3.20;;;1.58;;
77226;SDS011;66234;47.642;19.144;2023-02-05T05:26:40;5.10;;;1.70;;
77226;SDS011;66234;47.642;19.144;2023-02-05T05:29:45;4.32;;;1.55;;
77226;SDS011;66234;47.642;19.144;2023-02-05T05:32:47;3.23;;;1.53;;
77226;SDS011;66234;47.642;19.144;2023-02-05T05:35:50;3.90;;;1.90;;
77226;SDS011;66234;47.642;19.144;2023-02-05T05:38:52;2.28;;;0.88;;
77226;SDS011;66234;47.642;19.144;2023-02-05T05:41:55;2.40;;;1.27;;
77226;SDS011;66234;47.642;19.144;2023-02-05T05:45:16;2.65;;;1.30;;
77226;SDS011;66234;47.642;19.144;2023-02-05T05:48:19;3.35;;;1.77;;
77226;SDS011;66234;47.642;19.144;2023-02-05T05:51:22;4.63;;;1.33;;
77226;SDS011;66234;47.642;19.144;2023-02-05T05:54:25;6.20;;;1.70;;
77226;SDS011;66234;47.642;19.144;2023-02-05T05:57:28;5.63;;;1.70;;
77226;SDS011;66234;47.642;19.144;2023-02-05T06:00:30;3.00;;;1.20;;
77226;SDS011;66234;47.642;19.144;2023-02-05T06:03:33;2.97;;;1.33;;
77226;SDS011;66234;47.642;19.144;2023-02-05T06:06:36;4.18;;;1.95;;
77226;SDS011;66234;47.642;19.144;2023-02-05T06:09:39;3.53;;;1.42;;
77226;SDS011;66234;47.642;19.144;2023-02-05T06:12:41;3.30;;;0.90;;
77226;SDS011;66234;47.642;19.144;2023-02-05T06:15:44;4.72;;;1.63;;
77226;SDS011;66234;47.642;19.144;2023-02-05T06:18:48;3.10;;;1.52;;
77226;SDS011;66234;47.642;19.144;2023-02-05T06:21:51;6.35;;;2.33;;
77226;SDS011;66234;47.642;19.144;2023-02-05T06:24:54;3.37;;;1.73;;
77226;SDS011;66234;47.642;19.144;2023-02-05T06:27:56;6.25;;;2.17;;
77226;SDS011;66234;47.642;19.144;2023-02-05T06:30:59;3.60;;;1.80;;
77226;SDS011;66234;47.642;19.144;2023-02-05T06:34:02;3.97;;;1.77;;
77226;SDS011;66234;47.642;19.144;2023-02-05T06:37:05;4.50;;;2.03;;
77226;SDS011;66234;47.642;19.144;2023-02-05T06:40:08;8.10;;;2.80;;
77226;SDS011;66234;47.642;19.144;2023-02-05T06:43:14;3.40;;;2.13;;
77226;SDS011;66234;47.642;19.144;2023-02-05T06:46:16;4.77;;;1.60;;
77226;SDS011;66234;47.642;19.144;2023-02-05T06:49:19;4.30;;;2.22;;
77226;SDS011;66234;47.642;19.144;2023-02-05T06:52:22;5.75;;;2.42;;
77226;SDS011;66234;47.642;19.144;2023-02-05T06:55:24;4.85;;;2.10;;
77226;SDS011;66234;47.642;19.144;2023-02-05T06:58:27;3.17;;;1.92;;
77226;SDS011;66234;47.642;19.144;2023-02-05T07:01:29;4.63;;;2.17;;
77226;SDS011;66234;47.642;19.144;2023-02-05T07:04:33;3.80;;;1.65;;
77226;SDS011;66234;47.642;19.144;2023-02-05T07:07:35;1.50;;;0.80;;
77226;SDS011;66234;47.642;19.144;2023-02-05T07:10:41;4.80;;;1.95;;
77226;SDS011;66234;47.642;19.144;2023-02-05T07:13:43;3.35;;;1.33;;
77226;SDS011;66234;47.642;19.144;2023-02-05T07:16:46;7.38;;;2.13;;
77226;SDS011;66234;47.642;19.144;2023-02-05T07:19:49;1.50;;;1.13;;
77226;SDS011;66234;47.642;19.144;2023-02-05T07:22:51;3.55;;;1.52;;
77226;SDS011;66234;47.642;19.144;2023-02-05T07:25:54;4.25;;;1.65;;
77226;SDS011;66234;47.642;19.144;2023-02-05T07:28:57;4.53;;;2.00;;
77226;SDS011;66234;47.642;19.144;2023-02-05T07:31:59;4.03;;;2.47;;
77226;SDS011;66234;47.642;19.144;2023-02-05T07:35:02;3.28;;;1.17;;
77226;SDS011;66234;47.642;19.144;2023-02-05T07:38:04;14.52;;;6.25;;
77226;SDS011;66234;47.642;19.144;2023-02-05T07:41:08;6.75;;;3.97;;
77226;SDS011;66234;47.642;19.144;2023-02-05T07:44:12;6.63;;;3.17;;
77226;SDS011;66234;47.642;19.144;2023-02-05T07:47:15;2.97;;;1.27;;
77226;SDS011;66234;47.642;19.144;2023-02-05T07:50:18;7.97;;;2.70;;
77226;SDS011;66234;47.642;19.144;2023-02-05T07:53:21;4.18;;;2.25;;
77226;SDS011;66234;47.642;19.144;2023-02-05T07:56:23;5.80;;;2.95;;
77226;SDS011;66234;47.642;19.144;2023-02-05T07:59:27;4.47;;;1.63;;
77226;SDS011;66234;47.642;19.144;2023-02-05T08:02:30;4.20;;;1.92;;
77226;SDS011;66234;47.642;19.144;2023-02-05T08:05:32;4.68;;;1.65;;
77226;SDS011;66234;47.642;19.144;2023-02-05T08:08:35;4.10;;;1.27;;
77226;SDS011;66234;47.642;19.144;2023-02-05T08:11:38;3.88;;;0.93;;
77226;SDS011;66234;47.642;19.144;2023-02-05T08:14:41;2.47;;;1.30;;
77226;SDS011;66234;47.642;19.144;2023-02-05T08:17:43;5.50;;;2.10;;
77226;SDS011;66234;47.642;19.144;2023-02-05T08:20:46;6.43;;;2.30;;
77226;SDS011;66234;47.642;19.144;2023-02-05T08:23:48;6.28;;;2.53;;
77226;SDS011;66234;47.642;19.144;2023-02-05T08:26:51;4.25;;;2.03;;
77226;SDS011;66234;47.642;19.144;2023-02-05T08:29:53;2.03;;;1.30;;
77226;SDS011;66234;47.642;19.144;2023-02-05T08:32:56;3.70;;;1.10;;
77226;SDS011;66234;47.642;19.144;2023-02-05T08:35:58;2.22;;;1.67;;
77226;SDS011;66234;47.642;19.144;2023-02-05T08:39:01;1.15;;;0.60;;
77226;SDS011;66234;47.642;19.144;2023-02-05T08:42:04;4.45;;;1.27;;
77226;SDS011;66234;47.642;19.144;2023-02-05T08:45:06;2.28;;;0.85;;
77226;SDS011;66234;47.642;19.144;2023-02-05T08:48:10;1.92;;;0.70;;
77226;SDS011;66234;47.642;19.144;2023-02-05T08:51:13;1.97;;;1.13;;
77226;SDS011;66234;47.642;19.144;2023-02-05T08:54:16;2.33;;;1.02;;
77226;SDS011;66234;47.642;19.144;2023-02-05T08:57:19;1.20;;;0.60;;
77226;SDS011;66234;47.642;19.144;2023-02-05T09:00:22;3.00;;;1.27;;
77226;SDS011;66234;47.642;19.144;2023-02-05T09:03:25;3.90;;;1.70;;
77226;SDS011;66234;47.642;19.144;2023-02-05T09:06:27;3.08;;;0.82;;
77226;SDS011;66234;47.642;19.144;2023-02-05T09:09:30;2.45;;;1.20;;
77226;SDS011;66234;47.642;19.144;2023-02-05T09:12:34;4.33;;;1.20;;
77226;SDS011;66234;47.642;19.144;2023-02-05T09:15:43;5.10;;;1.77;;
77226;SDS011;66234;47.642;19.144;2023-02-05T09:18:49;2.90;;;1.17;;
77226;SDS011;66234;47.642;19.144;2023-02-05T09:21:52;2.88;;;1.33;;
77226;SDS011;66234;47.642;19.144;2023-02-05T09:24:55;2.85;;;1.30;;
77226;SDS011;66234;47.642;19.144;2023-02-05T09:27:58;2.80;;;1.08;;
77226;SDS011;66234;47.642;19.144;2023-02-05T09:31:05;2.72;;;1.55;;
77226;SDS011;66234;47.642;19.144;2023-02-05T09:34:09;2.40;;;1.27;;
77226;SDS011;66234;47.642;19.144;2023-02-05T09:37:12;4.57;;;1.37;;
77226;SDS011;66234;47.642;19.144;2023-02-05T09:40:17;6.65;;;2.90;;
77226;SDS011;66234;47.642;19.144;2023-02-05T09:46:48;8.35;;;3.67;;
77226;SDS011;66234;47.642;19.144;2023-02-05T09:53:17;3.90;;;2.22;;
77226;SDS011;66234;47.642;19.144;2023-02-05T09:56:22;1.95;;;0.93;;
77226;SDS011;66234;47.642;19.144;2023-02-05T09:59:28;1.92;;;0.90;;
77226;SDS011;66234;47.642;19.144;2023-02-05T10:02:36;1.43;;;0.50;;
77226;SDS011;66234;47.642;19.144;2023-02-05T10:12:20;2.17;;;0.90;;
77226;SDS011;66234;47.642;19.144;2023-02-05T10:15:52;1.75;;;0.63;;
77226;SDS011;66234;47.642;19.144;2023-02-05T10:25:56;2.05;;;1.00;;
77226;SDS011;66234;47.642;19.144;2023-02-05T10:32:55;1.20;;;0.80;;
77226;SDS011;66234;47.642;19.144;2023-02-05T10:36:00;1.90;;;0.57;;
77226;SDS011;66234;47.642;19.144;2023-02-05T10:39:13;0.57;;;0.28;;
77226;SDS011;66234;47.642;19.144;2023-02-05T10:45:43;2.83;;;0.90;;
77226;SDS011;66234;47.642;19.144;2023-02-05T10:48:50;3.13;;;0.90;;
77226;SDS011;66234;47.642;19.144;2023-02-05T10:51:58;1.63;;;0.60;;
77226;SDS011;66234;47.642;19.144;2023-02-05T10:55:00;1.33;;;0.63;;
77226;SDS011;66234;47.642;19.144;2023-02-05T10:58:08;1.67;;;0.67;;
77226;SDS011;66234;47.642;19.144;2023-02-05T11:01:40;2.73;;;0.60;;
77226;SDS011;66234;47.642;19.144;2023-02-05T11:04:47;3.15;;;0.98;;
77226;SDS011;66234;47.642;19.144;2023-02-05T11:08:02;2.10;;;0.60;;
77226;SDS011;66234;47.642;19.144;2023-02-05T11:11:06;2.20;;;0.70;;
77226;SDS011;66234;47.642;19.144;2023-02-05T11:14:40;1.77;;;0.67;;
77226;SDS011;66234;47.642;19.144;2023-02-05T11:17:48;0.98;;;0.38;;
77226;SDS011;66234;47.642;19.144;2023-02-05T11:20:54;1.45;;;0.73;;
77226;SDS011;66234;47.642;19.144;2023-02-05T11:24:02;2.08;;;0.65;;
77226;SDS011;66234;47.642;19.144;2023-02-05T11:30:33;2.83;;;1.02;;
77226;SDS011;66234;47.642;19.144;2023-02-05T11:37:09;1.80;;;0.73;;
77226;SDS011;66234;47.642;19.144;2023-02-05T11:40:19;2.13;;;0.97;;
77226;SDS011;66234;47.642;19.144;2023-02-05T11:43:27;2.05;;;0.82;;
77226;SDS011;66234;47.642;19.144;2023-02-05T11:46:33;2.30;;;1.17;;
77226;SDS011;66234;47.642;19.144;2023-02-05T11:49:48;1.38;;;0.60;;
77226;SDS011;66234;47.642;19.144;2023-02-05T11:52:55;1.67;;;0.80;;
77226;SDS011;66234;47.642;19.144;2023-02-05T11:56:10;3.28;;;1.75;;
77226;SDS011;66234;47.642;19.144;2023-02-05T11:59:23;1.95;;;0.93;;
77226;SDS011;66234;47.642;19.144;2023-02-05T12:05:34;1.57;;;1.10;;
77226;SDS011;66234;47.642;19.144;2023-02-05T12:08:46;1.70;;;0.65;;
77226;SDS011;66234;47.642;19.144;2023-02-05T12:11:53;6.55;;;3.28;;
77226;SDS011;66234;47.642;19.144;2023-02-05T12:15:33;2.08;;;0.70;;
77226;SDS011;66234;47.642;19.144;2023-02-05T12:20:03;3.43;;;1.37;;
77226;SDS011;66234;47.642;19.144;2023-02-05T12:23:10;6.18;;;2.00;;
77226;SDS011;66234;47.642;19.144;2023-02-05T12:26:29;3.47;;;0.85;;
77226;SDS011;66234;47.642;19.144;2023-02-05T12:29:49;2.92;;;0.95;;
77226;SDS011;66234;47.642;19.144;2023-02-05T12:40:28;5.50;;;2.28;;
77226;SDS011;66234;47.642;19.144;2023-02-05T12:43:43;1.35;;;0.70;;
77226;SDS011;66234;47.642;19.144;2023-02-05T12:46:51;1.63;;;0.80;;
77226;SDS011;66234;47.642;19.144;2023-02-05T12:50:06;3.40;;;0.70;;
77226;SDS011;66234;47.642;19.144;2023-02-05T13:00:53;2.72;;;1.38;;
77226;SDS011;66234;47.642;19.144;2023-02-05T13:04:01;0.87;;;0.47;;
77226;SDS011;66234;47.642;19.144;2023-02-05T13:07:09;6.40;;;2.05;;
77226;SDS011;66234;47.642;19.144;2023-02-05T13:10:21;2.25;;;0.90;;
77226;SDS011;66234;47.642;19.144;2023-02-05T13:13:27;5.43;;;0.80;;
77226;SDS011;66234;47.642;19.144;2023-02-05T13:16:36;2.95;;;0.80;;
77226;SDS011;66234;47.642;19.144;2023-02-05T13:19:45;2.17;;;0.63;;
77226;SDS011;66234;47.642;19.144;2023-02-05T13:22:53;2.45;;;0.88;;
77226;SDS011;66234;47.642;19.144;2023-02-05T13:26:17;3.40;;;1.23;;
77226;SDS011;66234;47.642;19.144;2023-02-05T13:29:27;2.17;;;1.00;;
77226;SDS011;66234;47.642;19.144;2023-02-05T13:32:33;4.57;;;1.80;;
77226;SDS011;66234;47.642;19.144;2023-02-05T13:36:13;5.27;;;1.23;;
77226;SDS011;66234;47.642;19.144;2023-02-05T13:46:41;5.53;;;2.80;;
77226;SDS011;66234;47.642;19.144;2023-02-05T13:56:03;2.55;;;1.23;;
77226;SDS011;66234;47.642;19.144;2023-02-05T13:59:26;1.65;;;0.98;;
77226;SDS011;66234;47.642;19.144;2023-02-05T14:02:39;4.93;;;1.98;;
77226;SDS011;66234;47.642;19.144;2023-02-05T14:05:44;3.85;;;1.85;;
77226;SDS011;66234;47.642;19.144;2023-02-05T14:08:50;3.57;;;1.70;;
77226;SDS011;66234;47.642;19.144;2023-02-05T14:12:03;2.05;;;0.93;;
77226;SDS011;66234;47.642;19.144;2023-02-05T14:24:48;4.97;;;2.60;;
77226;SDS011;66234;47.642;19.144;2023-02-05T14:27:51;3.13;;;1.63;;
77226;SDS011;66234;47.642;19.144;2023-02-05T14:34:25;3.17;;;1.38;;
77226;SDS011;66234;47.642;19.144;2023-02-05T14:37:45;4.57;;;2.25;;
77226;SDS011;66234;47.642;19.144;2023-02-05T14:44:24;3.65;;;2.35;;
77226;SDS011;66234;47.642;19.144;2023-02-05T14:47:32;5.90;;;2.80;;
77226;SDS011;66234;47.642;19.144;2023-02-05T14:50:37;5.47;;;2.53;;
77226;SDS011;66234;47.642;19.144;2023-02-05T14:53:42;10.07;;;5.57;;
77226;SDS011;66234;47.642;19.144;2023-02-05T14:57:14;12.97;;;6.80;;
77226;SDS011;66234;47.642;19.144;2023-02-05T15:00:26;8.02;;;4.03;;
77226;SDS011;66234;47.642;19.144;2023-02-05T15:03:35;10.90;;;5.47;;
77226;SDS011;66234;47.642;19.144;2023-02-05T15:06:42;10.55;;;5.47;;
77226;SDS011;66234;47.642;19.144;2023-02-05T15:09:47;7.28;;;4.30;;
77226;SDS011;66234;47.642;19.144;2023-02-05T15:13:11;4.60;;;2.23;;
77226;SDS011;66234;47.642;19.144;2023-02-05T15:16:18;3.40;;;1.50;;
77226;SDS011;66234;47.642;19.144;2023-02-05T15:19:22;9.18;;;3.67;;
77226;SDS011;66234;47.642;19.144;2023-02-05T15:22:32;8.10;;;5.22;;
77226;SDS011;66234;47.642;19.144;2023-02-05T15:25:40;6.10;;;3.95;;
77226;SDS011;66234;47.642;19.144;2023-02-05T15:28:56;8.63;;;3.10;;
77226;SDS011;66234;47.642;19.144;2023-02-05T15:32:04;3.75;;;2.47;;
77226;SDS011;66234;47.642;19.144;2023-02-05T15:35:18;12.13;;;6.20;;
77226;SDS011;66234;47.642;19.144;2023-02-05T15:38:25;17.08;;;7.03;;
77226;SDS011;66234;47.642;19.144;2023-02-05T15:41:44;12.20;;;4.93;;
77226;SDS011;66234;47.642;19.144;2023-02-05T15:44:48;12.43;;;4.63;;
77226;SDS011;66234;47.642;19.144;2023-02-05T15:48:10;14.45;;;6.13;;
77226;SDS011;66234;47.642;19.144;2023-02-05T15:54:30;11.60;;;8.07;;
77226;SDS011;66234;47.642;19.144;2023-02-05T15:57:37;11.07;;;7.63;;
77226;SDS011;66234;47.642;19.144;2023-02-05T16:00:40;12.98;;;6.80;;
77226;SDS011;66234;47.642;19.144;2023-02-05T16:03:47;14.20;;;7.30;;
77226;SDS011;66234;47.642;19.144;2023-02-05T16:06:49;11.57;;;6.47;;
77226;SDS011;66234;47.642;19.144;2023-02-05T16:09:54;11.93;;;6.30;;
77226;SDS011;66234;47.642;19.144;2023-02-05T16:16:06;18.67;;;7.85;;
77226;SDS011;66234;47.642;19.144;2023-02-05T16:19:18;14.63;;;7.63;;
77226;SDS011;66234;47.642;19.144;2023-02-05T16:25:42;19.30;;;10.57;;
77226;SDS011;66234;47.642;19.144;2023-02-05T16:28:47;16.17;;;7.03;;
77226;SDS011;66234;47.642;19.144;2023-02-05T16:32:00;22.00;;;11.03;;
77226;SDS011;66234;47.642;19.144;2023-02-05T16:35:07;26.23;;;11.18;;
77226;SDS011;66234;47.642;19.144;2023-02-05T16:38:24;22.15;;;11.55;;
77226;SDS011;66234;47.642;19.144;2023-02-05T16:41:36;24.13;;;11.95;;
77226;SDS011;66234;47.642;19.144;2023-02-05T16:44:41;23.77;;;10.82;;
77226;SDS011;66234;47.642;19.144;2023-02-05T16:51:33;30.50;;;13.40;;
77226;SDS011;66234;47.642;19.144;2023-02-05T16:54:55;41.43;;;17.63;;
77226;SDS011;66234;47.642;19.144;2023-02-05T16:58:02;33.92;;;13.00;;
77226;SDS011;66234;47.642;19.144;2023-02-05T17:01:07;29.73;;;14.35;;
77226;SDS011;66234;47.642;19.144;2023-02-05T17:04:18;22.63;;;10.57;;
77226;SDS011;66234;47.642;19.144;2023-02-05T17:07:28;19.73;;;9.75;;
77226;SDS011;66234;47.642;19.144;2023-02-05T17:10:51;27.33;;;12.93;;
77226;SDS011;66234;47.642;19.144;2023-02-05T17:17:32;28.13;;;12.07;;
77226;SDS011;66234;47.642;19.144;2023-02-05T17:20:49;23.05;;;11.52;;
77226;SDS011;66234;47.642;19.144;2023-02-05T17:23:52;29.75;;;14.02;;
77226;SDS011;66234;47.642;19.144;2023-02-05T17:26:58;30.13;;;12.73;;
77226;SDS011;66234;47.642;19.144;2023-02-05T17:30:02;18.58;;;9.35;;
77226;SDS011;66234;47.642;19.144;2023-02-05T17:33:07;17.50;;;9.48;;
77226;SDS011;66234;47.642;19.144;2023-02-05T17:36:14;26.60;;;11.05;;
77226;SDS011;66234;47.642;19.144;2023-02-05T17:39:18;19.15;;;8.00;;
77226;SDS011;66234;47.642;19.144;2023-02-05T17:42:22;30.17;;;14.23;;
77226;SDS011;66234;47.642;19.144;2023-02-05T17:45:29;10.38;;;5.30;;
77226;SDS011;66234;47.642;19.144;2023-02-05T17:48:34;16.57;;;7.67;;
77226;SDS011;66234;47.642;19.144;2023-02-05T17:51:37;11.48;;;5.28;;
77226;SDS011;66234;47.642;19.144;2023-02-05T17:54:43;9.98;;;5.28;;
77226;SDS011;66234;47.642;19.144;2023-02-05T17:57:48;13.10;;;5.90;;
77226;SDS011;66234;47.642;19.144;2023-02-05T18:00:51;17.63;;;6.18;;
77226;SDS011;66234;47.642;19.144;2023-02-05T18:03:54;18.38;;;6.55;;
77226;SDS011;66234;47.642;19.144;2023-02-05T18:06:57;13.38;;;6.20;;
77226;SDS011;66234;47.642;19.144;2023-02-05T18:10:00;14.50;;;6.35;;
77226;SDS011;66234;47.642;19.144;2023-02-05T18:13:03;12.50;;;6.35;;
77226;SDS011;66234;47.642;19.144;2023-02-05T18:16:06;12.43;;;5.60;;
77226;SDS011;66234;47.642;19.144;2023-02-05T18:19:10;11.07;;;5.77;;
77226;SDS011;66234;47.642;19.144;2023-02-05T18:22:13;12.23;;;5.50;;
77226;SDS011;66234;47.642;19.144;2023-02-05T18:25:17;9.90;;;5.50;;
77226;SDS011;66234;47.642;19.144;2023-02-05T18:28:20;17.20;;;6.77;;
77226;SDS011;66234;47.642;19.144;2023-02-05T18:31:23;24.02;;;9.63;;
77226;SDS011;66234;47.642;19.144;2023-02-05T18:34:26;20.73;;;8.85;;
77226;SDS011;66234;47.642;19.144;2023-02-05T18:37:29;30.90;;;10.43;;
77226;SDS011;66234;47.642;19.144;2023-02-05T18:40:31;21.63;;;9.20;;
77226;SDS011;66234;47.642;19.144;2023-02-05T18:43:35;21.73;;;8.15;;
77226;SDS011;66234;47.642;19.144;2023-02-05T18:46:38;16.10;;;7.43;;
77226;SDS011;66234;47.642;19.144;2023-02-05T18:49:41;20.80;;;9.67;;
77226;SDS011;66234;47.642;19.144;2023-02-05T18:52:43;22.23;;;8.13;;
77226;SDS011;66234;47.642;19.144;2023-02-05T18:55:57;23.08;;;8.43;;
77226;SDS011;66234;47.642;19.144;2023-02-05T18:59:06;18.00;;;8.50;;
77226;SDS011;66234;47.642;19.144;2023-02-05T19:02:10;19.10;;;7.55;;
77226;SDS011;66234;47.642;19.144;2023-02-05T19:05:13;18.45;;;8.90;;
77226;SDS011;66234;47.642;19.144;2023-02-05T19:08:16;24.80;;;11.50;;
77226;SDS011;66234;47.642;19.144;2023-02-05T19:11:20;24.45;;;11.80;;
77226;SDS011;66234;47.642;19.144;2023-02-05T19:14:25;29.75;;;10.93;;
77226;SDS011;66234;47.642;19.144;2023-02-05T19:17:28;33.58;;;11.52;;
77226;SDS011;66234;47.642;19.144;2023-02-05T19:20:32;28.93;;;11.00;;
77226;SDS011;66234;47.642;19.144;2023-02-05T19:23:36;24.45;;;10.65;;
77226;SDS011;66234;47.642;19.144;2023-02-05T19:26:40;20.45;;;10.35;;
77226;SDS011;66234;47.642;19.144;2023-02-05T19:29:46;18.37;;;8.67;;
77226;SDS011;66234;47.642;19.144;2023-02-05T19:32:49;15.40;;;7.47;;
77226;SDS011;66234;47.642;19.144;2023-02-05T19:35:52;18.65;;;7.82;;
77226;SDS011;66234;47.642;19.144;2023-02-05T19:38:58;24.13;;;9.23;;
77226;SDS011;66234;47.642;19.144;2023-02-05T19:42:01;17.58;;;8.65;;
77226;SDS011;66234;47.642;19.144;2023-02-05T19:45:04;22.33;;;9.32;;
77226;SDS011;66234;47.642;19.144;2023-02-05T19:48:08;22.65;;;8.88;;
77226;SDS011;66234;47.642;19.144;2023-02-05T19:51:11;22.57;;;9.97;;
77226;SDS011;66234;47.642;19.144;2023-02-05T19:54:15;18.30;;;8.93;;
77226;SDS011;66234;47.642;19.144;2023-02-05T19:57:22;20.13;;;9.13;;
77226;SDS011;66234;47.642;19.144;2023-02-05T20:00:26;19.80;;;8.87;;
77226;SDS011;66234;47.642;19.144;2023-02-05T20:03:31;21.92;;;8.85;;
77226;SDS011;66234;47.642;19.144;2023-02-05T20:06:34;20.75;;;8.10;;
77226;SDS011;66234;47.642;19.144;2023-02-05T20:09:37;18.90;;;9.60;;
77226;SDS011;66234;47.642;19.144;2023-02-05T20:12:40;27.23;;;11.82;;
77226;SDS011;66234;47.642;19.144;2023-02-05T20:15:44;29.35;;;13.73;;
77226;SDS011;66234;47.642;19.144;2023-02-05T20:18:53;33.00;;;13.55;;
77226;SDS011;66234;47.642;19.144;2023-02-05T20:21:58;33.37;;;14.63;;
77226;SDS011;66234;47.642;19.144;2023-02-05T20:25:01;40.97;;;16.42;;
77226;SDS011;66234;47.642;19.144;2023-02-05T20:28:04;32.78;;;15.50;;
77226;SDS011;66234;47.642;19.144;2023-02-05T20:31:07;31.13;;;15.83;;
77226;SDS011;66234;47.642;19.144;2023-02-05T20:34:28;29.35;;;15.80;;
77226;SDS011;66234;47.642;19.144;2023-02-05T20:37:32;35.53;;;16.30;;